Latest Weather Observations for Goulburn Airport

IDN60801

Issued at 6:34 pm EDT Thursday 29 January 2015 (issued every 30 minutes, with the page automatically refreshed every 10 minutes)

About weather observations | Map of weather stations | Latest weather observations for NSW | Other Formats
Station Details ID: 070330 Name: GOULBURN AIRPORT AWS Lat: -34.81 Lon: 149.73 Height: 640.0 m
Data from the previous 72 hours. | See also: Recent months at Goulburn Airport
Date/Time
EDT
Temp
°C
App
Temp
°C
Dew
Point
Rel
Hum
%
Delta-T
°C
Wind Press
QNH
hPa
Press
MSL
hPa
Rain
since 9 am
mm
Dir
 
Spd
km/h
Gust
km/h
Spd
kts
Gust
kts
29/06:30pm 18.0 13.7 7.7 51 5.4 SSE 20 26 11 14 1012.4 1009.5 0.0
29/06:00pm 18.5 12.7 7.9 50 5.6 S 28 37 15 20 1012.2 1009.2 0.0
29/05:30pm 19.2 15.3 8.5 50 5.7 S 19 26 10 14 1012.3 1009.4 0.0
29/05:00pm 19.1 14.5 6.6 44 6.5 S 20 28 11 15 1012.5 1009.6 0.0
29/04:30pm 17.6 10.0 9.2 58 4.5 S 39 50 21 27 1012.7 1009.8 0.0
29/04:20pm 17.4 12.3 7.5 52 5.2 SW 24 54 13 29 1012.8 1009.9 0.0
29/04:00pm 19.0 16.1 9.5 54 5.2 S 15 22 8 12 1012.8 1009.9 0.0
29/03:30pm 14.7 9.6 9.3 70 2.9 S 26 44 14 24 1013.4 1010.4 0.0
29/03:00pm 18.6 14.3 6.8 46 6.1 SSW 19 32 10 17 1013.5 1010.5 0.0
29/02:30pm 17.5 12.0 6.1 47 5.8 SSW 24 30 13 16 1013.8 1010.9 0.0
29/02:00pm 17.2 11.7 6.1 48 5.6 SSE 24 33 13 18 1013.9 1011.0 0.0
29/01:30pm 17.1 11.7 6.3 49 5.5 S 24 32 13 17 1014.1 1011.2 0.0
29/01:00pm 16.9 12.0 5.2 46 5.8 SSW 20 32 11 17 1014.4 1011.5 0.0
29/12:30pm 17.6 11.6 5.5 45 6.1 S 26 44 14 24 1014.5 1011.6 0.0
29/12:00pm 16.8 11.1 5.1 46 5.8 S 24 33 13 18 1014.9 1011.9 0.0
29/11:00am 15.6 8.8 5.2 50 5.1 S 30 39 16 21 1015.2 1012.3 0.0
29/10:30am 16.0 10.1 5.9 51 5.0 S 26 37 14 20 1015.4 1012.5 0.0
29/10:00am 14.5 8.2 5.6 55 4.4 S 28 39 15 21 1015.6 1012.7 0.0
29/09:30am 14.6 9.1 5.9 56 4.3 S 24 35 13 19 1015.7 1012.8 0.0
29/09:00am 13.6 8.1 5.7 59 3.9 S 24 35 13 19 1015.7 1012.8 0.0
29/08:30am 12.6 8.9 6.4 66 3.1 SSW 15 24 8 13 1015.7 1012.8 0.0
29/08:00am 11.3 8.0 6.6 73 2.3 SSW 13 17 7 9 1015.7 1012.8 0.0
29/07:30am 10.1 7.2 6.6 79 1.7 S 11 19 6 10 1015.6 1012.7 0.0
29/07:00am 8.7 7.0 7.6 93 0.5 WSW 6 7 3 4 1015.3 1012.4 0.0
29/06:30am 7.4 5.2 6.0 91 0.7 W 7 9 4 5 1015.1 1012.2 0.0
29/06:00am 8.5 6.5 7.1 91 0.7 WSW 7 9 4 5 1014.8 1011.9 0.0
29/05:30am 8.8 6.6 7.7 93 0.5 SSW 9 11 5 6 1014.6 1011.7 0.0
29/05:00am 8.9 7.1 7.8 93 0.5 SW 7 9 4 5 1014.7 1011.8 0.0
29/04:30am 9.0 7.4 8.2 95 0.4 SW 6 7 3 4 1014.7 1011.8 0.0
29/04:00am 8.8 8.3 8.0 95 0.4 CALM 0 0 0 0 1014.7 1011.8 0.0
29/03:30am 8.7 7.1 7.9 95 0.4 WSW 6 7 3 4 1015.1 1012.2 0.0
29/03:00am 7.7 5.8 6.6 93 0.5 WSW 6 7 3 4 1015.2 1012.3 0.0
29/02:30am 8.0 7.2 6.5 90 0.7 CALM 0 0 0 0 1015.4 1012.5 0.0
29/02:00am 8.9 8.3 7.4 90 0.7 CALM 0 0 0 0 1015.7 1012.8 0.0
29/01:30am 9.2 6.9 7.5 89 0.8 S 9 11 5 6 1016.1 1013.2 0.0
29/01:00am 10.0 7.0 7.9 87 1.0 SSE 13 19 7 10 1016.3 1013.4 0.0
29/12:30am 10.6 7.0 8.5 87 1.1 SSE 17 22 9 12 1016.6 1013.7 0.0
29/12:00am 10.9 7.8 8.7 86 1.1 S 15 20 8 11 1016.7 1013.8 0.0
 
Date/Time
EDT
Temp
°C
App
Temp
°C
Dew
Point
Rel
Hum
%
Delta-T
°C
Wind Press
QNH
hPa
Press
MSL
hPa
Rain
since 9 am
mm
Dir
 
Spd
km/h
Gust
km/h
Spd
kts
Gust
kts
28/11:30pm 11.7 8.2 8.9 83 1.4 S 17 20 9 11 1016.7 1013.8 0.0
28/11:00pm 11.8 7.7 8.6 81 1.6 SSE 20 30 11 16 1016.9 1014.0 0.0
28/10:30pm 12.2 8.7 8.9 80 1.7 SSE 17 22 9 12 1017.0 1014.1 0.0
28/10:00pm 12.5 10.1 10.0 85 1.3 SSE 13 15 7 8 1017.1 1014.2 0.0
28/09:30pm 11.6 9.7 9.0 84 1.3 SSE 9 13 5 7 1016.9 1014.0 0.0
28/09:00pm 11.9 9.5 8.6 80 1.7 SE 11 13 6 7 1016.8 1013.9 0.0
28/08:30pm 13.1 9.4 8.0 71 2.6 SE 17 22 9 12 1016.8 1013.9 0.0
28/08:00pm 13.4 10.5 8.3 71 2.6 SE 13 19 7 10 1016.7 1013.8 0.0
28/07:30pm 14.0 9.3 7.8 66 3.2 SE 22 33 12 18 1016.3 1013.4 0.0
28/07:00pm 14.2 9.1 7.5 64 3.4 SE 24 37 13 20 1016.0 1013.1 0.0
28/06:30pm 14.2 7.8 8.6 69 2.9 SE 32 43 17 23 1016.1 1013.2 0.0
28/06:00pm 16.9 10.7 9.3 61 4.1 SE 32 43 17 23 1015.5 1012.6 0.0
28/05:30pm 17.5 11.4 8.4 55 4.8 SE 30 39 16 21 1015.3 1012.4 0.0
28/05:00pm 18.5 14.4 10.1 58 4.6 SE 22 33 12 18 1015.4 1012.5 0.0
28/04:30pm 17.5 11.5 10.1 62 4.1 SE 32 43 17 23 1015.4 1012.5 0.0
28/04:00pm 20.5 15.6 11.2 55 5.3 SE 28 41 15 22 1015.2 1012.3 0.0
28/03:30pm 19.1 14.6 10.1 56 5.0 ESE 24 35 13 19 1015.3 1012.4 0.0
28/03:00pm 19.3 15.0 10.6 57 4.9 ESE 24 37 13 20 1015.4 1012.5 0.0
28/02:30pm 18.5 14.8 12.7 69 3.3 ESE 24 33 13 18 1015.8 1012.9 0.0
28/02:00pm 19.5 15.7 11.3 59 4.6 ESE 22 33 12 18 1015.7 1012.8 0.0
28/01:30pm 17.9 12.6 9.8 59 4.4 ESE 28 37 15 20 1016.1 1013.2 0.0
28/01:00pm 19.2 14.9 10.7 58 4.7 SE 24 35 13 19 1016.0 1013.1 0.0
28/12:30pm 18.6 14.5 11.4 63 4.1 SE 24 33 13 18 1016.2 1013.3 0.0
28/12:00pm 18.4 12.7 11.0 62 4.1 SE 32 43 17 23 1016.3 1013.4 0.0
28/11:30am 18.3 13.0 11.4 64 3.9 SE 30 39 16 21 1016.3 1013.4 0.0
28/11:00am 17.4 13.2 11.0 66 3.6 SSE 24 39 13 21 1016.4 1013.6 0.0
28/10:30am 15.8 11.6 11.0 73 2.6 SSE 24 33 13 18 1016.6 1013.7 0.0
28/10:00am 16.3 12.0 11.9 75 2.5 SE 26 35 14 19 1016.4 1013.6 0.0
28/09:35am 14.8 11.0 11.2 79 2.0 SSE 22 28 12 15 1016.4 1013.6 0.0
28/09:30am 14.6 10.8 11.0 79 2.0 SSE 22 28 12 15 1016.4 1013.6 0.0
28/09:17am 15.0 11.2 11.0 77 2.2 SSE 22 28 12 15 1016.3 1013.4 0.0
28/09:00am 14.9 10.3 10.9 77 2.2 SSE 26 37 14 20 1016.2 1013.3 0.6
28/08:52am 15.1 10.6 11.3 78 2.1 SSE 26 33 14 18 1016.2 1013.3 0.6
28/08:30am 14.8 11.1 11.4 80 1.9 SSE 22 32 12 17 1015.9 1013.0 0.6
28/08:00am 14.3 10.6 11.6 84 1.5 SSE 22 30 12 16 1015.7 1012.8 0.6
28/07:58am 14.3 10.6 11.6 84 1.5 SE 22 30 12 16 1015.7 1012.8 0.6
28/07:30am 13.3 10.1 11.2 87 1.1 SE 19 24 10 13 1015.5 1012.6 0.6
28/07:00am 12.5 10.4 11.2 92 0.7 SE 13 17 7 9 1015.4 1012.5 0.6
28/06:35am 12.4 9.9 11.1 92 0.7 SE 15 19 8 10 1015.1 1012.2 0.6
28/06:30am 12.3 10.2 11.0 92 0.7 SE 13 17 7 9 1015.1 1012.2 0.6
28/06:15am 12.4 9.5 11.1 92 0.7 SSE 17 20 9 11 1015.0 1012.0 0.6
28/06:00am 12.4 10.0 11.3 93 0.6 SSE 15 19 8 10 1014.9 1011.9 0.6
28/05:56am 12.3 9.5 11.2 93 0.6 SSE 17 22 9 12 1014.7 1011.8 0.6
28/05:30am 12.3 8.9 11.4 94 0.5 SE 20 28 11 15 1014.6 1011.7 0.6
28/05:00am 12.4 9.1 11.6 95 0.4 SSE 20 26 11 14 1014.5 1011.6 0.6
28/04:30am 12.5 9.2 11.6 94 0.5 SSE 20 28 11 15 1014.3 1011.4 0.6
28/04:00am 12.7 10.4 11.6 93 0.6 SE 15 20 8 11 1014.4 1011.5 0.6
28/03:39am 12.8 10.4 11.5 92 0.7 SE 15 19 8 10 1014.4 1011.5 0.6
28/03:32am 12.8 10.4 11.5 92 0.7 SE 15 19 8 10 1014.5 1011.6 0.6
28/03:30am 12.8 10.4 11.5 92 0.7 SE 15 19 8 10 1014.5 1011.6 0.6
28/03:00am 12.7 10.3 11.4 92 0.7 SE 15 20 8 11 1014.6 1011.7 0.6
28/02:58am 12.7 10.3 11.4 92 0.7 SE 15 20 8 11 1014.6 1011.7 0.6
28/02:37am 12.7 10.3 11.4 92 0.7 SE 15 20 8 11 1014.7 1011.8 0.6
28/02:30am 12.7 9.9 11.4 92 0.7 SE 17 24 9 13 1014.9 1011.9 0.6
28/02:00am 12.7 10.8 11.8 94 0.5 SE 13 19 7 10 1015.0 1012.0 0.6
28/01:46am 12.5 10.5 11.6 94 0.5 SE 13 20 7 11 1015.0 1012.0 0.6
28/01:30am 12.3 10.7 11.4 94 0.5 SE 11 15 6 8 1015.0 1012.0 0.6
28/01:11am 12.2 9.8 11.3 94 0.5 SE 15 20 8 11 1015.1 1012.2 0.6
28/01:00am 12.3 9.9 11.4 94 0.5 SSE 15 19 8 10 1015.2 1012.3 0.6
28/12:53am 12.5 10.2 11.6 94 0.5 SSE 15 19 8 10 1015.2 1012.3 0.6
28/12:52am 12.6 10.3 11.7 94 0.5 SSE 15 19 8 10 1015.3 1012.4 0.6
28/12:30am 12.5 9.8 11.6 94 0.5 SE 17 22 9 12 1015.5 1012.6 0.6
28/12:00am 13.1 10.9 12.2 94 0.5 SE 15 20 8 11 1015.6 1012.7 0.6
 
Date/Time
EDT
Temp
°C
App
Temp
°C
Dew
Point
Rel
Hum
%
Delta-T
°C
Wind Press
QNH
hPa
Press
MSL
hPa
Rain
since 9 am
mm
Dir
 
Spd
km/h
Gust
km/h
Spd
kts
Gust
kts
27/11:49pm 13.1 10.6 12.2 94 0.5 SE 17 20 9 11 1015.8 1012.9 0.6
27/11:38pm 13.1 10.2 12.2 94 0.5 SE 19 24 10 13 1015.9 1013.0 0.6
27/11:30pm 13.1 10.0 12.2 94 0.5 SE 20 28 11 15 1015.8 1012.9 0.6
27/11:00pm 13.2 10.2 12.4 95 0.4 SE 20 30 11 16 1015.8 1012.9 0.6
27/10:30pm 13.3 10.3 12.5 95 0.4 SE 20 28 11 15 1015.7 1012.8 0.4
27/10:00pm 13.5 10.5 12.7 95 0.5 SE 20 28 11 15 1015.6 1012.7 0.4
27/09:41pm 13.6 12.0 12.8 95 0.5 SE 13 19 7 10 1015.5 1012.6 0.2
27/09:30pm 13.5 11.9 12.7 95 0.5 SE 13 17 7 9 1015.3 1012.4 0.2
27/09:22pm 13.5 11.9 12.7 95 0.5 SE 13 17 7 9 1015.4 1012.5 0.2
27/09:00pm 13.5 11.8 12.6 94 0.5 ESE 13 19 7 10 1015.4 1012.5 0.2
27/08:46pm 13.5 11.1 12.6 94 0.5 ESE 17 22 9 12 1015.3 1012.4 0.2
27/08:43pm 13.5 11.1 12.6 94 0.5 ESE 17 22 9 12 1015.3 1012.4 0.2
27/08:30pm 13.4 10.6 12.5 94 0.5 ESE 19 28 10 15 1015.3 1012.4 0.2
27/08:00pm 13.6 11.6 12.7 94 0.5 SE 15 19 8 10 1015.2 1012.3 0.2
27/07:30pm 14.1 11.0 12.1 88 1.1 SE 20 32 11 17 1014.9 1011.9 0.2
27/07:00pm 14.3 10.8 12.2 87 1.2 SE 22 30 12 16 1014.5 1011.6 0.2
27/06:30pm 15.0 12.6 12.5 85 1.4 SE 17 24 9 13 1014.1 1011.2 0.2
27/06:00pm 14.9 11.9 12.6 86 1.3 SE 20 30 11 16 1013.9 1011.0 0.2
27/05:30pm 14.3 11.6 12.9 91 0.8 SE 19 24 10 13 1014.2 1011.3 0.2
27/05:00pm 15.0 12.3 13.4 90 0.9 ESE 20 28 11 15 1014.2 1011.3 0.2
27/04:30pm 14.8 12.2 13.7 93 0.6 SE 20 26 11 14 1014.1 1011.2 0.2
27/04:00pm 15.1 13.1 14.0 93 0.6 SE 17 20 9 11 1014.6 1011.7 0.0
27/03:30pm 14.9 11.8 13.3 90 0.9 ESE 22 30 12 16 1014.7 1011.8 0.0
27/03:00pm 15.6 12.9 13.4 87 1.3 ESE 20 28 11 15 1014.6 1011.7 0.0
27/02:30pm 15.9 13.0 12.8 82 1.8 E 20 28 11 15 1014.7 1011.8 0.0
27/02:00pm 16.2 12.6 12.9 81 1.9 ESE 24 33 13 18 1015.0 1012.0 0.0
27/01:30pm 16.3 13.0 14.0 86 1.3 ESE 24 33 13 18 1014.9 1011.9 0.0
27/01:00pm 15.6 12.8 14.3 92 0.8 ESE 22 30 12 16 1015.4 1012.5 0.0
27/12:30pm 15.1 12.8 13.1 88 1.1 ESE 17 24 9 13 1015.8 1012.9 0.0
27/12:00pm 15.0 12.8 13.4 90 0.9 ESE 17 22 9 12 1015.8 1012.9 0.0
27/11:30am 14.7 12.1 13.2 91 0.9 ESE 19 26 10 14 1015.8 1012.9 0.0
27/11:00am 15.0 13.5 14.2 95 0.5 ESE 15 20 8 11 1015.8 1012.9 0.0
27/10:30am 14.0 11.8 13.2 95 0.5 ESE 17 22 9 12 1016.1 1013.2 0.0
27/10:00am 13.8 11.1 13.0 95 0.5 SE 19 26 10 14 1016.0 1013.1 0.0
27/09:30am 13.6 11.3 13.0 96 0.3 SE 17 20 9 11 1016.0 1013.1 0.0
27/09:00am 13.5 11.6 12.9 96 0.3 SE 15 20 8 11 1016.0 1013.1 0.6
27/08:30am 13.2 11.6 12.7 97 0.3 SE 13 19 7 10 1015.8 1012.9 0.6
27/08:00am 13.1 11.0 12.5 96 0.3 SE 15 20 8 11 1015.6 1012.7 0.6
27/07:30am 13.1 11.4 12.6 97 0.3 ESE 13 19 7 10 1015.4 1012.5 0.6
27/07:00am 13.1 11.1 12.6 97 0.3 SE 15 19 8 10 1015.1 1012.2 0.6
27/06:30am 12.9 11.2 12.4 97 0.3 ESE 13 20 7 11 1014.7 1011.8 0.6
27/06:00am 12.9 10.4 12.4 97 0.3 ESE 17 20 9 11 1014.7 1011.8 0.4
27/05:30am 12.8 10.7 12.3 97 0.3 ESE 15 20 8 11 1014.5 1011.6 0.4
27/05:00am 12.7 10.9 12.2 97 0.3 SE 13 17 7 9 1014.6 1011.7 0.4
27/04:30am 12.7 10.5 12.2 97 0.3 ESE 15 20 8 11 1014.9 1011.9 0.2
27/04:00am 12.7 10.9 12.2 97 0.3 SE 13 17 7 9 1015.0 1012.0 0.2
27/03:30am 12.7 10.9 12.2 97 0.3 SE 13 19 7 10 1015.1 1012.2 0.2
27/03:00am 12.6 10.4 12.1 97 0.3 SE 15 20 8 11 1015.3 1012.4 0.2
27/02:30am 12.7 10.5 12.2 97 0.3 SE 15 20 8 11 1015.5 1012.6 0.2
27/02:00am 12.7 10.5 12.2 97 0.3 SE 15 20 8 11 1015.6 1012.7 0.2
27/01:30am 12.7 10.5 12.2 97 0.3 SE 15 20 8 11 1015.8 1012.9 0.2
27/01:00am 12.8 10.3 12.2 96 0.3 ESE 17 22 9 12 1016.1 1013.2 0.2
27/12:30am 12.7 10.5 12.2 97 0.3 ESE 15 20 8 11 1016.2 1013.3 0.2
27/12:00am 12.7 10.5 12.2 97 0.3 ESE 15 20 8 11 1016.3 1013.4 0.0
 
Date/Time
EDT
Temp
°C
App
Temp
°C
Dew
Point
Rel
Hum
%
Delta-T
°C
Wind Press
QNH
hPa
Press
MSL
hPa
Rain
since 9 am
mm
Dir
 
Spd
km/h
Gust
km/h
Spd
kts
Gust
kts
26/11:30pm 12.5 10.6 11.9 96 0.3 SE 13 19 7 10 1016.7 1013.8 0.0
26/11:00pm 12.4 10.5 11.8 96 0.3 SE 13 17 7 9 1016.9 1014.0 0.0
26/10:30pm 12.5 10.6 11.7 95 0.4 SE 13 17 7 9 1017.2 1014.3 0.0
26/10:00pm 12.5 10.5 11.6 94 0.5 SE 13 19 7 10 1017.2 1014.3 0.0
26/09:30pm 12.6 10.3 11.7 94 0.5 ESE 15 20 8 11 1016.8 1013.9 0.0
26/09:00pm 12.5 10.2 11.7 95 0.4 ESE 15 20 8 11 1016.7 1013.8 0.0
26/08:30pm 12.4 10.4 11.6 95 0.4 ESE 13 19 7 10 1016.6 1013.7 0.0
26/08:00pm 12.4 10.0 11.5 94 0.5 ESE 15 20 8 11 1016.4 1013.6 0.0
26/07:30pm 12.5 10.1 11.4 93 0.6 ESE 15 20 8 11 1016.1 1013.2 0.0
26/07:00pm 12.6 10.1 11.0 90 0.9 SE 15 20 8 11 1015.9 1013.0 0.0

Other Formats:

Comma delimited format used in spreadsheet applications
http://www.bom.gov.au/fwo/IDN60801/IDN60801.95716.axf

JavaScript Object Notation format (JSON) in row-major order
http://www.bom.gov.au/fwo/IDN60801/IDN60801.95716.json